Swansea, United Kingdom
Current Conditions -  °F | °C
As of 10:50 AM on Sunday 21 Dec 2014 (Local Time) from EGOP Reporting Station
Broken Clouds Broken Clouds  
Wind Chill: 50°   Ceiling: 2500
Heat Index: 50°   Visibility: 6mi
Dew Point: 48°   Wind: 29mph
Humidity: 94%   Direction: 240°WSW
Pressure: 30.33"   Gusts: NA
Location:  51.62°N, 3.94°W
Report Text: EGOP 211050Z AUTO 24025KT 9999 // FEW008/// SCT011/// BKN025/// 10/09 Q1027
Loading
Personal Weather Stations






























Interactive Weather Map New forecast layout! Learn more

10-Day Weather Forecast

Advertisements
Track Severe Weather on mobile